Time;durP1;ratioP1;P1;durP2;ratioP2;P2;SDS_P1;SDS_P2;PMS_P1;PMS_P2;Temp;Humidity;BMP_temperature;BMP_pressure;BME280_temperature;BME280_humidity;BME280_pressure;Samples;Min_cycle;Max_cycle;Signal;HPM_P1;HPM_P2
2023/08/22 00:01:22;;;;;;;8.68;5.13;;;18.90;99.90;;;;;;4993888;28;37129;-81
2023/08/22 00:03:48;;;;;;;7.97;4.40;;;18.90;99.90;;;;;;5007349;28;38402;-81
2023/08/22 00:06:14;;;;;;;7.40;4.10;;;18.90;99.90;;;;;;4999159;28;39286;-81
2023/08/22 00:08:41;;;;;;;5.65;3.50;;;18.90;99.90;;;;;;4998351;28;39317;-81
2023/08/22 00:11:07;;;;;;;7.50;3.80;;;18.90;99.90;;;;;;5000905;28;37268;-80
2023/08/22 00:13:33;;;;;;;13.80;5.65;;;18.90;99.90;;;;;;5012944;28;38694;-81
2023/08/22 00:15:59;;;;;;;10.02;5.13;;;18.90;99.90;;;;;;5000919;28;39131;-80
2023/08/22 00:18:27;;;;;;;9.82;4.65;;;18.90;99.90;;;;;;4996062;28;37283;-80
2023/08/22 00:20:53;;;;;;;11.00;5.05;;;18.90;99.90;;;;;;4995435;28;36379;-80
2023/08/22 00:23:19;;;;;;;7.45;4.22;;;18.90;99.90;;;;;;4996013;28;37151;-81
2023/08/22 00:25:45;;;;;;;6.57;4.47;;;18.90;99.90;;;;;;4997897;28;36348;-80
2023/08/22 00:28:12;;;;;;;5.95;3.65;;;18.90;99.90;;;;;;4999343;28;37803;-81
2023/08/22 00:30:39;;;;;;;7.95;4.22;;;18.90;99.90;;;;;;4999278;28;35998;-81
2023/08/22 00:33:05;;;;;;;8.13;4.45;;;18.90;99.90;;;;;;4997020;28;38935;-81
2023/08/22 00:35:31;;;;;;;10.18;4.38;;;18.90;99.90;;;;;;4999014;28;37847;-80
2023/08/22 00:37:57;;;;;;;6.95;4.10;;;18.80;99.90;;;;;;4998176;28;37248;-81
2023/08/22 00:40:23;;;;;;;9.32;3.60;;;18.90;99.90;;;;;;5009174;28;37980;-81
2023/08/22 00:42:50;;;;;;;6.70;3.30;;;18.80;99.90;;;;;;5002015;28;41062;-80
2023/08/22 00:45:16;;;;;;;8.40;4.10;;;18.90;99.90;;;;;;5004804;28;38187;-81
2023/08/22 00:47:42;;;;;;;7.88;3.40;;;18.80;99.90;;;;;;4996333;28;37857;-81
2023/08/22 00:50:09;;;;;;;7.28;3.90;;;18.80;99.90;;;;;;4996192;28;37983;-80
2023/08/22 00:52:36;;;;;;;8.10;4.00;;;18.80;99.90;;;;;;4996903;28;40113;-81
2023/08/22 00:55:02;;;;;;;6.45;3.25;;;18.80;99.90;;;;;;4999810;28;40751;-81
2023/08/22 00:57:29;;;;;;;7.28;3.35;;;18.70;99.90;;;;;;4997054;28;41551;-80
2023/08/22 00:59:57;;;;;;;5.85;3.80;;;18.60;99.90;;;;;;4998421;28;36169;-81
2023/08/22 01:02:23;;;;;;;7.63;3.28;;;18.60;99.90;;;;;;5358494;22;38068;-77
2023/08/22 01:04:50;;;;;;;6.20;3.47;;;18.60;99.90;;;;;;5003317;28;36189;-77
2023/08/22 01:07:25;;;;;;;6.95;3.33;;;18.60;99.90;;;;;;5004028;28;38151;-77
2023/08/22 01:10:10;;;;;;;6.57;3.05;;;18.50;99.90;;;;;;5005076;28;37372;-77
2023/08/22 01:13:03;;;;;;;6.55;3.83;;;18.50;99.90;;;;;;5004204;28;47154;-77
2023/08/22 01:15:34;;;;;;;7.18;3.72;;;18.50;99.90;;;;;;5006578;28;50060;-77
2023/08/22 01:18:04;;;;;;;5.50;3.00;;;18.40;99.90;;;;;;5007873;28;37335;-77
2023/08/22 01:20:30;;;;;;;5.90;2.97;;;18.40;99.90;;;;;;5000343;28;48188;-77
2023/08/22 01:22:57;;;;;;;6.72;3.53;;;18.40;99.90;;;;;;4998842;28;39649;-77
2023/08/22 01:25:25;;;;;;;6.80;3.33;;;18.40;99.90;;;;;;4999482;28;37973;-77
2023/08/22 01:28:08;;;;;;;5.65;3.17;;;18.30;99.90;;;;;;4997102;28;37843;-77
2023/08/22 01:30:56;;;;;;;6.70;3.50;;;18.30;99.90;;;;;;4997145;28;47865;-77
2023/08/22 01:33:28;;;;;;;7.00;3.58;;;18.30;99.90;;;;;;5002911;28;37600;-76
2023/08/22 01:35:55;;;;;;;6.43;3.40;;;18.20;99.90;;;;;;5002045;28;37150;-77
2023/08/22 01:38:25;;;;;;;5.20;3.90;;;18.20;99.90;;;;;;5001151;28;38026;-77
2023/08/22 01:40:53;;;;;;;8.23;4.07;;;18.20;99.90;;;;;;4993663;28;35749;-77
2023/08/22 01:43:21;;;;;;;9.45;4.68;;;18.20;99.90;;;;;;4997517;28;38542;-76
2023/08/22 01:45:48;;;;;;;6.43;3.67;;;18.10;99.90;;;;;;4996039;28;39090;-77
2023/08/22 01:48:14;;;;;;;5.03;3.95;;;18.10;99.90;;;;;;5002923;28;36921;-77
2023/08/22 01:50:40;;;;;;;8.23;4.10;;;18.10;99.90;;;;;;5000116;28;35767;-77
2023/08/22 01:53:07;;;;;;;6.18;4.00;;;18.00;99.90;;;;;;4999393;28;39465;-76
2023/08/22 01:55:33;;;;;;;8.40;4.30;;;18.00;99.90;;;;;;5000528;28;38398;-77
2023/08/22 01:57:59;;;;;;;7.88;4.53;;;18.00;99.90;;;;;;4998046;28;37918;-77
2023/08/22 02:00:26;;;;;;;8.45;4.90;;;18.00;99.90;;;;;;4995162;28;38174;-76
2023/08/22 02:02:52;;;;;;;8.60;5.15;;;18.00;99.90;;;;;;4997093;28;36988;-77
2023/08/22 02:05:18;;;;;;;7.32;4.72;;;17.90;99.90;;;;;;4995872;28;38836;-77
2023/08/22 02:07:45;;;;;;;8.07;5.03;;;17.90;99.90;;;;;;4997158;28;38031;-77
2023/08/22 02:10:11;;;;;;;7.30;4.97;;;17.90;99.90;;;;;;4998934;28;35920;-77
2023/08/22 02:12:37;;;;;;;7.13;4.70;;;17.90;99.90;;;;;;5000078;28;39273;-77
2023/08/22 02:15:03;;;;;;;9.40;5.32;;;17.80;99.90;;;;;;4999377;28;38032;-77
2023/08/22 02:17:29;;;;;;;9.45;5.60;;;17.80;99.90;;;;;;4997703;28;38616;-77
2023/08/22 02:19:56;;;;;;;10.30;5.90;;;17.80;99.90;;;;;;5000023;28;38036;-77
2023/08/22 02:22:22;;;;;;;11.20;6.68;;;17.80;99.90;;;;;;4994957;28;38612;-77
2023/08/22 02:24:48;;;;;;;13.15;7.22;;;17.70;99.90;;;;;;4997762;28;38566;-77
2023/08/22 02:27:14;;;;;;;11.85;6.57;;;17.70;99.90;;;;;;4998020;28;37359;-77
2023/08/22 02:29:40;;;;;;;9.10;6.03;;;17.70;99.90;;;;;;4996923;28;34504;-77
2023/08/22 02:32:07;;;;;;;11.52;6.40;;;17.70;99.90;;;;;;4995461;28;39099;-77
2023/08/22 02:34:33;;;;;;;13.60;7.25;;;17.70;99.90;;;;;;4995779;28;38936;-77
2023/08/22 02:36:59;;;;;;;13.15;7.68;;;17.70;99.90;;;;;;5002267;28;35181;-77
2023/08/22 02:39:25;;;;;;;11.50;7.28;;;17.70;99.90;;;;;;4995735;28;37250;-77
2023/08/22 02:41:51;;;;;;;10.32;7.95;;;17.70;99.90;;;;;;4992236;28;38516;-77
2023/08/22 02:44:17;;;;;;;13.25;7.68;;;17.70;99.90;;;;;;4991535;28;38434;-77
2023/08/22 02:46:43;;;;;;;13.55;8.85;;;17.70;99.90;;;;;;4993863;28;37824;-77
2023/08/22 02:49:09;;;;;;;14.82;10.07;;;17.60;99.90;;;;;;4993718;28;37729;-77
2023/08/22 02:51:35;;;;;;;14.68;9.02;;;17.60;99.90;;;;;;4993429;28;40400;-77
2023/08/22 02:54:02;;;;;;;22.25;12.45;;;17.60;99.90;;;;;;4995575;28;37687;-76
2023/08/22 02:56:28;;;;;;;16.58;9.55;;;17.60;99.90;;;;;;4998328;28;38259;-77
2023/08/22 02:58:54;;;;;;;12.63;9.30;;;17.60;99.90;;;;;;4995033;28;37771;-77
2023/08/22 03:01:20;;;;;;;12.55;9.13;;;17.60;99.90;;;;;;4992303;28;39766;-77
2023/08/22 03:03:51;;;;;;;14.80;10.70;;;17.50;99.90;;;;;;5012230;28;36060;-77
2023/08/22 03:06:17;;;;;;;13.25;9.60;;;17.50;99.90;;;;;;4998770;28;39590;-77
2023/08/22 03:08:43;;;;;;;18.60;12.00;;;17.50;99.90;;;;;;4996276;28;37769;-77
2023/08/22 03:11:10;;;;;;;13.10;9.45;;;17.50;99.90;;;;;;4998568;28;39171;-77
2023/08/22 03:13:36;;;;;;;13.75;9.55;;;17.40;99.90;;;;;;5000364;28;39467;-77
2023/08/22 03:16:02;;;;;;;11.68;8.65;;;17.40;99.90;;;;;;5004773;28;36997;-76
2023/08/22 03:18:28;;;;;;;12.02;8.48;;;17.40;99.90;;;;;;5007924;28;35947;-77
2023/08/22 03:20:56;;;;;;;13.25;8.52;;;17.40;99.90;;;;;;5004999;28;38908;-77
2023/08/22 03:23:23;;;;;;;11.35;8.55;;;17.40;99.90;;;;;;4997082;28;38662;-77
2023/08/22 03:26:00;;;;;;;11.15;8.15;;;17.40;99.90;;;;;;4997833;28;37499;-77
2023/08/22 03:28:27;;;;;;;11.25;8.50;;;17.30;99.90;;;;;;4996978;28;36566;-77
2023/08/22 03:31:03;;;;;;;14.23;7.88;;;17.30;99.90;;;;;;5001072;28;39103;-77
2023/08/22 03:33:30;;;;;;;10.57;7.03;;;17.30;99.90;;;;;;4996679;28;48644;-78
2023/08/22 03:35:57;;;;;;;9.32;6.78;;;17.30;99.90;;;;;;4994323;28;37228;-77
2023/08/22 03:38:25;;;;;;;9.48;7.03;;;17.30;99.90;;;;;;4998501;28;36070;-77
2023/08/22 03:40:52;;;;;;;10.13;6.65;;;17.30;99.90;;;;;;4999444;28;38614;-77
2023/08/22 03:43:19;;;;;;;10.57;8.13;;;17.20;99.90;;;;;;4995838;28;39145;-77
2023/08/22 03:45:46;;;;;;;11.85;6.95;;;17.30;99.90;;;;;;5022191;28;36947;-77
2023/08/22 03:48:12;;;;;;;12.65;7.45;;;17.20;99.90;;;;;;5005816;28;35742;-77
2023/08/22 03:50:42;;;;;;;11.30;7.22;;;17.20;99.90;;;;;;5010387;28;38396;-77
2023/08/22 03:53:12;;;;;;;10.95;7.38;;;17.20;99.90;;;;;;5005765;28;39112;-77
2023/08/22 03:55:39;;;;;;;9.13;6.70;;;17.20;99.90;;;;;;5008567;28;38461;-77
2023/08/22 03:58:06;;;;;;;11.02;6.97;;;17.20;99.90;;;;;;4994462;28;37256;-77
2023/08/22 04:00:32;;;;;;;11.80;7.20;;;17.20;99.90;;;;;;4995289;28;39372;-77
2023/08/22 04:02:59;;;;;;;15.68;9.20;;;17.20;99.90;;;;;;4997252;28;38560;-77
2023/08/22 04:05:25;;;;;;;11.95;8.20;;;17.20;99.90;;;;;;4995676;28;37903;-77
2023/08/22 04:07:52;;;;;;;14.27;8.93;;;17.10;99.90;;;;;;4996889;28;37773;-77
2023/08/22 04:10:20;;;;;;;13.88;8.68;;;17.10;99.90;;;;;;5001549;28;38887;-77
2023/08/22 04:12:46;;;;;;;15.32;9.48;;;17.20;99.90;;;;;;4997889;28;38643;-77
2023/08/22 04:15:13;;;;;;;11.60;8.35;;;17.10;99.90;;;;;;4997553;28;37817;-77
2023/08/22 04:17:41;;;;;;;11.25;8.45;;;17.20;99.90;;;;;;4996341;28;37121;-77
2023/08/22 04:20:12;;;;;;;11.50;8.55;;;17.20;99.90;;;;;;4994444;28;37984;-77
2023/08/22 04:22:42;;;;;;;17.77;10.00;;;17.20;99.90;;;;;;4992359;28;47337;-77
2023/08/22 04:25:10;;;;;;;13.88;10.75;;;17.20;99.90;;;;;;4994040;28;38882;-77
2023/08/22 04:27:37;;;;;;;15.60;10.25;;;17.10;99.90;;;;;;4995328;28;39593;-77
2023/08/22 04:30:04;;;;;;;13.90;10.18;;;17.10;99.90;;;;;;4995205;28;37730;-77
2023/08/22 04:32:31;;;;;;;13.10;9.45;;;17.10;99.90;;;;;;4994172;28;37351;-77
2023/08/22 04:34:57;;;;;;;16.92;10.93;;;17.10;99.90;;;;;;4997103;28;38197;-77
2023/08/22 04:37:24;;;;;;;14.07;10.20;;;17.10;99.90;;;;;;4996617;28;37256;-78
2023/08/22 04:39:50;;;;;;;15.82;10.68;;;17.10;99.90;;;;;;4999747;28;37836;-77
2023/08/22 04:42:16;;;;;;;14.32;10.02;;;17.10;99.90;;;;;;4996609;28;38270;-76
2023/08/22 04:44:42;;;;;;;16.27;9.93;;;17.10;99.90;;;;;;4999517;28;37527;-77
2023/08/22 04:47:08;;;;;;;13.70;9.95;;;17.10;99.90;;;;;;4997667;28;37477;-77
2023/08/22 04:49:34;;;;;;;13.20;9.55;;;17.10;99.90;;;;;;5000573;28;37747;-77
2023/08/22 04:52:00;;;;;;;20.23;10.65;;;17.00;99.90;;;;;;4997939;28;38441;-77
2023/08/22 04:54:27;;;;;;;15.57;10.90;;;17.00;99.90;;;;;;4996267;28;38123;-77
2023/08/22 04:56:53;;;;;;;15.38;11.38;;;17.00;99.90;;;;;;4998159;28;36315;-77
2023/08/22 04:59:19;;;;;;;17.08;11.50;;;17.00;99.90;;;;;;4995435;28;39566;-78
2023/08/22 05:01:45;;;;;;;16.00;10.68;;;17.00;99.90;;;;;;4998079;28;38118;-77
2023/08/22 05:04:11;;;;;;;15.88;11.13;;;17.00;99.90;;;;;;5000536;28;36937;-77
2023/08/22 05:06:38;;;;;;;14.25;10.93;;;17.00;99.90;;;;;;4999213;28;36668;-77
2023/08/22 05:09:04;;;;;;;14.85;10.20;;;17.00;99.90;;;;;;4998096;28;38307;-77
2023/08/22 05:11:30;;;;;;;14.77;10.50;;;17.00;99.90;;;;;;4995637;28;38127;-77
2023/08/22 05:13:56;;;;;;;14.27;10.70;;;17.00;99.90;;;;;;4996471;28;37325;-77
2023/08/22 05:16:22;;;;;;;18.77;12.10;;;17.10;99.90;;;;;;4996642;28;36892;-77
2023/08/22 05:18:48;;;;;;;14.73;10.68;;;17.20;99.90;;;;;;4997610;28;38709;-78
2023/08/22 05:21:14;;;;;;;11.07;9.25;;;17.30;99.90;;;;;;4999546;28;38879;-77
2023/08/22 05:23:40;;;;;;;15.73;10.13;;;17.30;99.90;;;;;;5002309;28;36941;-76
2023/08/22 05:26:07;;;;;;;14.30;10.75;;;17.40;99.90;;;;;;4995541;28;36758;-77
2023/08/22 05:28:33;;;;;;;18.20;11.70;;;17.50;99.90;;;;;;4996870;28;38204;-76
2023/08/22 05:30:59;;;;;;;15.27;11.23;;;17.50;99.90;;;;;;5007438;28;38163;-78
2023/08/22 05:33:25;;;;;;;23.60;12.55;;;17.60;99.90;;;;;;5001760;28;38259;-76
2023/08/22 05:35:51;;;;;;;22.48;12.60;;;17.60;99.90;;;;;;5004676;28;36148;-76
2023/08/22 05:38:17;;;;;;;17.05;11.13;;;17.70;99.90;;;;;;5013212;28;38571;-76
2023/08/22 05:40:43;;;;;;;16.40;10.18;;;17.80;99.90;;;;;;5013062;28;39009;-76
2023/08/22 05:43:09;;;;;;;17.15;10.80;;;17.80;99.90;;;;;;5012373;28;38343;-76
2023/08/22 05:45:36;;;;;;;14.30;9.85;;;17.80;99.90;;;;;;5012078;28;37064;-76
2023/08/22 05:48:02;;;;;;;17.10;10.63;;;17.90;99.90;;;;;;5021587;28;38088;-76
2023/08/22 05:50:28;;;;;;;15.68;9.25;;;17.90;99.90;;;;;;5021155;28;39331;-76
2023/08/22 05:52:54;;;;;;;15.05;9.73;;;18.00;99.90;;;;;;5018419;28;37044;-76
2023/08/22 05:55:20;;;;;;;16.13;9.95;;;18.10;99.90;;;;;;5016106;28;37277;-76
2023/08/22 05:57:46;;;;;;;20.23;10.65;;;18.10;99.90;;;;;;4997888;28;38442;-77
2023/08/22 06:00:13;;;;;;;12.57;9.38;;;18.20;99.90;;;;;;4996896;28;38125;-77
2023/08/22 06:02:39;;;;;;;13.18;8.45;;;18.20;99.90;;;;;;5000615;28;37132;-76
2023/08/22 06:05:06;;;;;;;14.32;10.15;;;18.30;99.90;;;;;;5013886;28;40336;-76
2023/08/22 06:07:32;;;;;;;12.95;8.52;;;18.30;99.90;;;;;;4996671;28;38914;-76
2023/08/22 06:10:00;;;;;;;17.50;9.30;;;18.40;99.90;;;;;;4998196;28;38211;-76
2023/08/22 06:12:27;;;;;;;17.38;10.63;;;18.40;99.90;;;;;;4997856;28;39728;-77
2023/08/22 06:14:53;;;;;;;12.73;8.88;;;18.50;99.90;;;;;;4998831;28;37443;-76
2023/08/22 06:17:19;;;;;;;16.80;9.27;;;18.50;99.90;;;;;;4996165;28;39445;-76
2023/08/22 06:19:48;;;;;;;13.52;8.85;;;18.50;99.90;;;;;;5000166;28;37860;-76
2023/08/22 06:22:14;;;;;;;14.55;9.60;;;18.60;99.90;;;;;;5002773;28;37395;-76
2023/08/22 06:24:41;;;;;;;18.55;11.02;;;18.60;99.90;;;;;;5009204;28;37359;-76
2023/08/22 06:27:07;;;;;;;17.05;8.98;;;18.70;99.90;;;;;;5005260;28;38886;-76
2023/08/22 06:29:33;;;;;;;14.82;9.50;;;18.70;99.90;;;;;;5005118;28;37939;-76
2023/08/22 06:32:00;;;;;;;10.95;7.85;;;18.70;99.90;;;;;;5002325;28;37437;-76
2023/08/22 06:34:26;;;;;;;13.55;8.75;;;18.70;99.90;;;;;;4997802;28;36343;-77
2023/08/22 06:36:52;;;;;;;15.70;10.00;;;18.80;99.90;;;;;;4996404;28;39190;-76
2023/08/22 06:39:19;;;;;;;16.33;9.52;;;18.80;99.90;;;;;;4996215;28;37017;-76
2023/08/22 06:41:45;;;;;;;16.42;9.82;;;18.80;99.90;;;;;;4997800;28;37327;-76
2023/08/22 06:44:11;;;;;;;15.45;10.23;;;18.80;99.90;;;;;;4994772;28;36833;-76
2023/08/22 06:46:37;;;;;;;16.58;9.75;;;18.90;99.90;;;;;;5003044;28;38548;-76
2023/08/22 06:49:03;;;;;;;13.90;9.77;;;18.90;99.90;;;;;;4993702;28;38883;-76
2023/08/22 06:51:30;;;;;;;19.52;10.30;;;19.00;99.90;;;;;;4996117;28;36897;-78
2023/08/22 06:53:56;;;;;;;17.42;9.82;;;19.00;99.90;;;;;;4996740;28;37052;-78
2023/08/22 06:56:22;;;;;;;20.38;10.02;;;19.10;99.90;;;;;;4995468;28;38664;-78
2023/08/22 06:58:48;;;;;;;16.10;9.13;;;19.20;99.90;;;;;;5004030;28;37598;-78
2023/08/22 07:01:14;;;;;;;16.75;9.30;;;19.40;99.90;;;;;;5000265;28;37858;-77
2023/08/22 07:03:42;;;;;;;13.05;8.38;;;19.50;99.90;;;;;;4995290;28;35894;-77
2023/08/22 07:06:08;;;;;;;17.58;8.88;;;19.60;99.90;;;;;;4992058;28;38606;-77
2023/08/22 07:08:34;;;;;;;12.82;8.65;;;19.70;99.90;;;;;;4996622;28;38568;-77
2023/08/22 07:11:03;;;;;;;15.65;8.75;;;19.90;99.90;;;;;;4996018;28;39818;-77
2023/08/22 07:13:31;;;;;;;14.55;8.25;;;20.10;99.90;;;;;;5002381;28;47346;-78
2023/08/22 07:15:57;;;;;;;13.93;7.95;;;20.30;99.90;;;;;;5002179;28;39952;-77
2023/08/22 07:18:23;;;;;;;11.00;7.80;;;20.40;99.90;;;;;;4992318;28;38328;-78
2023/08/22 07:20:51;;;;;;;15.90;8.23;;;20.40;99.90;;;;;;5001109;28;38022;-78
2023/08/22 07:23:19;;;;;;;13.13;7.80;;;20.40;99.90;;;;;;4997588;28;37952;-78
2023/08/22 07:25:51;;;;;;;9.65;7.40;;;20.30;99.90;;;;;;5003466;28;38935;-78
2023/08/22 07:28:18;;;;;;;16.58;8.35;;;20.30;99.90;;;;;;5002320;28;37288;-78
2023/08/22 07:30:46;;;;;;;11.20;7.63;;;20.30;99.90;;;;;;4997777;28;38719;-79
2023/08/22 07:33:13;;;;;;;13.88;8.60;;;20.30;99.90;;;;;;5004147;28;38423;-78
2023/08/22 07:35:39;;;;;;;17.13;9.85;;;20.40;99.90;;;;;;5002043;28;39636;-78
2023/08/22 07:38:05;;;;;;;12.68;9.00;;;20.30;99.90;;;;;;4995872;28;38719;-78
2023/08/22 07:40:32;;;;;;;13.57;9.05;;;20.20;99.90;;;;;;5001946;28;37397;-78
2023/08/22 07:42:59;;;;;;;16.63;8.88;;;20.30;99.90;;;;;;5001108;28;37988;-78
2023/08/22 07:45:25;;;;;;;13.30;8.48;;;20.30;99.90;;;;;;5003750;28;38795;-78
2023/08/22 07:47:51;;;;;;;13.10;8.32;;;20.30;99.90;;;;;;5004219;28;39021;-77
2023/08/22 07:50:18;;;;;;;12.50;9.10;;;20.40;99.90;;;;;;5001801;28;37209;-78
2023/08/22 07:52:44;;;;;;;17.60;9.65;;;20.40;99.90;;;;;;5002429;28;38841;-77
2023/08/22 07:55:10;;;;;;;12.32;8.95;;;20.40;99.90;;;;;;5005949;28;38548;-77
2023/08/22 07:57:36;;;;;;;14.15;8.95;;;20.40;99.90;;;;;;5007391;28;38043;-76
2023/08/22 08:00:08;;;;;;;14.93;8.85;;;20.30;99.90;;;;;;5006943;28;37794;-77
2023/08/22 08:02:34;;;;;;;12.07;7.50;;;20.30;99.90;;;;;;5000823;28;37109;-78
2023/08/22 08:05:01;;;;;;;11.80;8.45;;;20.30;99.90;;;;;;4998920;28;40433;-77
2023/08/22 08:07:27;;;;;;;11.88;7.75;;;20.40;99.90;;;;;;5002295;28;38264;-78
2023/08/22 08:09:53;;;;;;;11.10;8.32;;;20.60;99.90;;;;;;5005624;28;38833;-78
2023/08/22 08:12:19;;;;;;;14.75;9.05;;;20.80;99.90;;;;;;5000388;28;37480;-77
2023/08/22 08:14:46;;;;;;;14.15;8.63;;;20.90;99.90;;;;;;5000762;28;37490;-78
2023/08/22 08:17:12;;;;;;;12.40;8.38;;;21.00;99.90;;;;;;5006291;28;37562;-78
2023/08/22 08:19:39;;;;;;;11.70;7.05;;;21.00;99.90;;;;;;5007866;28;20054;-78
2023/08/22 08:22:05;;;;;;;16.73;7.45;;;21.00;99.90;;;;;;5001600;28;37462;-78
2023/08/22 08:24:32;;;;;;;10.35;6.00;;;20.90;99.90;;;;;;5000087;28;37551;-77
2023/08/22 08:26:58;;;;;;;13.98;4.40;;;21.10;99.90;;;;;;5009962;28;38096;-77
2023/08/22 08:29:24;;;;;;;8.27;4.05;;;21.00;99.90;;;;;;5002083;28;38160;-78
2023/08/22 08:31:50;;;;;;;10.48;3.78;;;21.00;99.90;;;;;;5001938;28;37395;-77
2023/08/22 08:34:16;;;;;;;9.50;3.30;;;21.00;99.90;;;;;;5006471;28;38672;-77
2023/08/22 08:36:43;;;;;;;7.18;2.88;;;21.00;99.90;;;;;;4992975;28;38566;-78
2023/08/22 08:39:09;;;;;;;6.13;2.40;;;21.10;99.90;;;;;;5000376;28;37796;-77
2023/08/22 08:41:42;;;;;;;7.82;2.80;;;21.10;99.90;;;;;;5002371;28;36121;-78
2023/08/22 08:44:12;;;;;;;7.25;2.40;;;21.10;99.90;;;;;;5001445;28;38800;-77
2023/08/22 08:46:38;;;;;;;7.63;2.15;;;21.20;99.90;;;;;;5008925;28;37247;-77
2023/08/22 08:49:05;;;;;;;6.80;1.80;;;21.30;99.90;;;;;;5000498;28;38189;-76
2023/08/22 08:51:32;;;;;;;7.70;2.20;;;21.30;99.90;;;;;;4998522;28;37666;-77
2023/08/22 08:53:58;;;;;;;6.97;2.28;;;21.40;99.90;;;;;;5004420;28;37719;-77
2023/08/22 08:56:24;;;;;;;8.13;2.20;;;21.50;99.90;;;;;;5000927;28;38126;-77
2023/08/22 08:58:50;;;;;;;5.85;2.13;;;21.70;99.90;;;;;;4999262;28;37106;-77
2023/08/22 09:01:17;;;;;;;7.03;2.15;;;21.80;99.90;;;;;;5001595;28;37745;-76
2023/08/22 09:03:44;;;;;;;11.52;2.20;;;22.00;99.90;;;;;;5000759;28;37802;-77
2023/08/22 09:06:11;;;;;;;6.20;2.00;;;22.40;99.90;;;;;;5004523;28;38244;-77
2023/08/22 09:08:37;;;;;;;5.75;1.83;;;22.50;99.90;;;;;;5003638;28;36694;-77
2023/08/22 09:11:03;;;;;;;9.88;2.03;;;22.60;99.90;;;;;;5002610;28;35726;-76
2023/08/22 09:13:30;;;;;;;4.38;1.75;;;22.80;99.90;;;;;;5004069;28;38963;-77
2023/08/22 09:16:00;;;;;;;7.85;1.67;;;22.90;99.90;;;;;;5003916;28;38356;-76
2023/08/22 09:18:27;;;;;;;9.20;2.75;;;23.00;99.90;;;;;;5011195;28;36949;-77
2023/08/22 09:21:02;;;;;;;7.53;1.83;;;23.00;99.90;;;;;;5004196;28;36271;-76
2023/08/22 09:23:31;;;;;;;9.07;2.08;;;22.80;99.90;;;;;;5002983;28;47095;-76
2023/08/22 09:25:57;;;;;;;6.72;2.53;;;22.80;99.90;;;;;;5004853;28;38734;-77
2023/08/22 09:28:23;;;;;;;4.28;1.63;;;22.60;99.90;;;;;;5003006;28;38876;-78
2023/08/22 09:30:54;;;;;;;4.65;1.23;;;22.40;99.90;;;;;;4997422;28;36970;-78
2023/08/22 09:33:21;;;;;;;5.68;1.40;;;22.30;99.90;;;;;;4997940;28;39574;-78
2023/08/22 09:35:48;;;;;;;4.20;1.70;;;22.30;99.90;;;;;;4993094;28;38365;-78
2023/08/22 09:38:14;;;;;;;4.93;1.67;;;22.20;99.90;;;;;;5000084;28;37919;-79
2023/08/22 09:40:51;;;;;;;5.38;1.92;;;22.30;99.90;;;;;;5004718;28;35885;-78
2023/08/22 09:43:19;;;;;;;5.97;1.35;;;22.50;99.90;;;;;;5002721;28;38729;-78
2023/08/22 09:45:48;;;;;;;7.00;1.80;;;22.50;99.90;;;;;;5000783;28;37271;-77
2023/08/22 09:48:21;;;;;;;3.67;1.60;;;22.40;99.90;;;;;;4993794;28;37323;-77
2023/08/22 09:50:53;;;;;;;5.00;1.77;;;22.20;99.90;;;;;;5000666;28;37491;-77
2023/08/22 09:53:21;;;;;;;4.60;1.58;;;22.10;99.90;;;;;;5004068;28;36875;-77
2023/08/22 09:55:50;;;;;;;6.00;1.67;;;22.20;99.90;;;;;;4999579;28;39130;-76
2023/08/22 09:58:17;;;;;;;6.07;1.60;;;22.20;99.90;;;;;;5006528;28;40221;-77
2023/08/22 10:00:45;;;;;;;7.32;1.40;;;22.10;99.90;;;;;;5001085;28;37640;-76
2023/08/22 10:03:13;;;;;;;6.43;1.63;;;22.20;99.90;;;;;;4991026;28;38530;-77
2023/08/22 10:05:41;;;;;;;8.30;1.90;;;22.20;99.90;;;;;;5001168;28;37327;-76
2023/08/22 10:08:07;;;;;;;4.60;1.30;;;22.30;99.90;;;;;;4999938;28;37039;-77
2023/08/22 10:10:34;;;;;;;8.25;1.45;;;22.40;99.90;;;;;;5001135;28;36313;-76
2023/08/22 10:13:02;;;;;;;5.85;1.60;;;22.50;99.90;;;;;;5006086;28;37435;-76
2023/08/22 10:15:28;;;;;;;7.05;1.65;;;22.40;99.90;;;;;;4999309;28;46983;-76
2023/08/22 10:17:56;;;;;;;4.28;1.27;;;22.30;99.90;;;;;;5001435;28;39063;-76
2023/08/22 10:20:22;;;;;;;6.50;1.35;;;22.30;99.80;;;;;;4997232;28;36212;-75
2023/08/22 10:22:51;;;;;;;6.15;1.20;;;22.40;99.90;;;;;;5003052;28;39103;-77
2023/08/22 10:25:18;;;;;;;4.50;1.10;;;22.70;97.70;;;;;;5006191;28;37772;-76
2023/08/22 10:27:48;;;;;;;4.50;0.88;;;23.00;99.90;;;;;;5008429;28;38149;-77
2023/08/22 10:30:15;;;;;;;4.70;1.05;;;23.20;91.40;;;;;;5010546;28;37477;-77
2023/08/22 10:32:42;;;;;;;3.00;1.25;;;23.30;86.00;;;;;;5010089;28;38524;-77
2023/08/22 10:35:13;;;;;;;6.60;1.27;;;23.20;90.10;;;;;;5009326;28;37331;-77
2023/08/22 10:37:51;;;;;;;5.50;1.33;;;23.10;79.00;;;;;;5010232;28;38564;-78
2023/08/22 10:40:28;;;;;;;6.93;1.50;;;23.00;98.60;;;;;;5004714;28;35855;-77
2023/08/22 10:43:09;;;;;;;4.10;1.20;;;23.10;91.00;;;;;;5009521;28;38995;-77
2023/08/22 10:45:46;;;;;;;2.63;0.90;;;23.10;95.90;;;;;;5008419;28;47194;-77
2023/08/22 10:48:15;;;;;;;7.90;1.38;;;22.80;90.20;;;;;;5010144;28;36721;-77
2023/08/22 10:50:43;;;;;;;5.10;1.33;;;22.60;91.40;;;;;;4995482;28;37548;-77
2023/08/22 10:53:24;;;;;;;3.42;1.38;;;22.70;95.20;;;;;;5008776;28;37539;-77
2023/08/22 10:55:50;;;;;;;5.03;0.95;;;23.10;99.90;;;;;;5001248;28;37290;-77
2023/08/22 10:58:36;;;;;;;8.63;1.20;;;23.20;84.70;;;;;;5011481;28;38166;-77
2023/08/22 11:01:10;;;;;;;6.53;1.40;;;23.30;98.10;;;;;;5009282;28;36999;-77
2023/08/22 11:03:37;;;;;;;7.22;1.80;;;23.50;91.80;;;;;;5001254;28;37905;-78
2023/08/22 11:06:14;;;;;;;4.45;1.33;;;23.60;89.40;;;;;;5014354;28;38255;-78
2023/08/22 11:08:44;;;;;;;4.70;1.08;;;23.50;85.20;;;;;;5012233;28;37142;-78
2023/08/22 11:11:14;;;;;;;3.70;1.10;;;23.20;91.20;;;;;;5013702;28;37145;-78
2023/08/22 11:13:42;;;;;;;5.35;1.48;;;23.20;96.90;;;;;;5012239;28;40699;-77
2023/08/22 11:16:11;;;;;;;6.10;1.63;;;23.20;94.00;;;;;;5015331;28;39440;-77
2023/08/22 11:18:38;;;;;;;5.68;1.73;;;23.20;99.90;;;;;;5010813;28;36983;-77
2023/08/22 11:21:06;;;;;;;5.03;1.65;;;23.20;99.90;;;;;;5002013;28;36223;-76
2023/08/22 11:23:34;;;;;;;5.72;1.92;;;23.00;99.90;;;;;;4997818;28;39016;-78
2023/08/22 11:26:02;;;;;;;6.18;1.80;;;23.00;99.90;;;;;;5009671;28;39570;-77
2023/08/22 11:28:32;;;;;;;6.32;1.45;;;23.10;99.90;;;;;;5008744;28;47164;-77
2023/08/22 11:30:59;;;;;;;5.53;1.30;;;23.10;99.90;;;;;;5005978;28;37080;-78
2023/08/22 11:33:25;;;;;;;4.28;1.10;;;23.00;99.80;;;;;;5010051;28;38279;-77
2023/08/22 11:35:52;;;;;;;4.75;1.10;;;22.90;98.00;;;;;;5012565;28;38222;-77
2023/08/22 11:38:18;;;;;;;6.25;1.20;;;22.90;97.20;;;;;;5008174;28;39031;-77
2023/08/22 11:40:45;;;;;;;5.40;1.38;;;23.00;99.90;;;;;;5007789;28;36894;-77
2023/08/22 11:43:13;;;;;;;5.13;1.20;;;22.90;96.50;;;;;;5005926;28;37823;-78
2023/08/22 11:45:46;;;;;;;6.32;1.27;;;22.70;96.00;;;;;;5004144;28;37480;-77
2023/08/22 11:48:18;;;;;;;4.65;1.50;;;22.60;98.30;;;;;;5009127;28;36988;-78
2023/08/22 11:50:45;;;;;;;5.78;1.35;;;22.50;96.80;;;;;;5010036;28;37173;-77
2023/08/22 11:53:15;;;;;;;4.20;1.58;;;22.30;99.40;;;;;;5005170;28;37900;-77
2023/08/22 11:55:43;;;;;;;5.85;1.58;;;22.20;99.90;;;;;;5008529;28;38486;-77
2023/08/22 11:58:15;;;;;;;3.38;1.60;;;22.30;99.90;;;;;;5002634;28;36780;-77
2023/08/22 12:00:41;;;;;;;;;;;22.40;99.90;;;;;;5008589;28;36370;-77
2023/08/22 12:03:09;;;;;;;7.70;1.42;;;22.40;99.90;;;;;;5007088;28;38906;-77
2023/08/22 12:05:40;;;;;;;5.57;1.80;;;22.50;99.90;;;;;;5004212;28;40096;-78
2023/08/22 12:08:06;;;;;;;4.25;1.55;;;22.70;99.90;;;;;;5008742;28;38045;-77
2023/08/22 12:10:39;;;;;;;3.42;1.20;;;22.70;99.90;;;;;;5008160;28;38044;-78
2023/08/22 12:13:06;;;;;;;4.85;1.50;;;23.10;99.90;;;;;;5005471;28;37807;-78
2023/08/22 12:15:33;;;;;;;4.28;1.38;;;23.50;95.40;;;;;;5000637;28;37146;-78
2023/08/22 12:18:00;;;;;;;6.50;1.70;;;23.70;91.40;;;;;;5000466;28;39109;-78
2023/08/22 12:20:26;;;;;;;4.10;1.60;;;23.80;82.30;;;;;;5005417;28;35983;-79
2023/08/22 12:22:52;;;;;;;3.55;1.48;;;23.90;92.30;;;;;;5004904;28;37621;-78
2023/08/22 12:25:19;;;;;;;4.90;1.63;;;23.80;91.10;;;;;;5002093;28;39202;-77
2023/08/22 12:27:45;;;;;;;4.63;1.50;;;23.70;93.30;;;;;;5007778;28;37768;-78
2023/08/22 12:30:12;;;;;;;7.20;1.45;;;23.50;97.70;;;;;;5002115;28;36502;-77
2023/08/22 12:32:38;;;;;;;5.30;1.52;;;23.50;98.80;;;;;;5003444;28;38580;-78
2023/08/22 12:35:04;;;;;;;5.07;1.60;;;23.10;95.60;;;;;;5003297;28;38632;-78
2023/08/22 12:37:30;;;;;;;4.03;1.45;;;23.10;99.70;;;;;;5000931;28;36882;-78
2023/08/22 12:39:56;;;;;;;6.22;1.40;;;23.00;99.90;;;;;;4999036;28;37343;-78
2023/08/22 12:42:22;;;;;;;4.60;1.38;;;22.90;99.90;;;;;;5006229;28;39290;-78